sensor_id;sensor_type;location;lat;lon;timestamp;pressure;altitude;pressure_sealevel;temperature;humidity
50682;BME280;36779;52.168;20.878;2022-11-13T00:01:42;102122.97;;;8.97;77.29
50682;BME280;36779;52.168;20.878;2022-11-13T00:04:30;102126.55;;;8.99;77.20
50682;BME280;36779;52.168;20.878;2022-11-13T00:07:17;102123.02;;;8.96;77.31
50682;BME280;36779;52.168;20.878;2022-11-13T00:10:07;102120.89;;;8.96;77.34
50682;BME280;36779;52.168;20.878;2022-11-13T00:13:09;102119.17;;;8.95;77.35
50682;BME280;36779;52.168;20.878;2022-11-13T00:15:58;102115.61;;;8.91;77.14
50682;BME280;36779;52.168;20.878;2022-11-13T00:18:51;102116.13;;;8.89;77.15
50682;BME280;36779;52.168;20.878;2022-11-13T00:21:39;102119.12;;;8.89;77.29
50682;BME280;36779;52.168;20.878;2022-11-13T00:24:29;102120.34;;;8.92;77.30
50682;BME280;36779;52.168;20.878;2022-11-13T00:27:17;102115.74;;;8.94;77.37
50682;BME280;36779;52.168;20.878;2022-11-13T00:30:07;102111.95;;;8.92;77.20
50682;BME280;36779;52.168;20.878;2022-11-13T00:32:54;102114.73;;;8.93;77.39
50682;BME280;36779;52.168;20.878;2022-11-13T00:35:45;102115.60;;;8.93;77.27
50682;BME280;36779;52.168;20.878;2022-11-13T00:38:34;102112.13;;;8.90;77.33
50682;BME280;36779;52.168;20.878;2022-11-13T00:41:22;102116.34;;;8.88;77.39
50682;BME280;36779;52.168;20.878;2022-11-13T00:44:10;102116.17;;;8.85;77.23
50682;BME280;36779;52.168;20.878;2022-11-13T00:47:03;102116.45;;;8.86;77.46
50682;BME280;36779;52.168;20.878;2022-11-13T00:49:52;102113.83;;;8.91;77.63
50682;BME280;36779;52.168;20.878;2022-11-13T00:52:43;102111.20;;;8.95;77.39
50682;BME280;36779;52.168;20.878;2022-11-13T00:55:31;102109.84;;;9.02;77.54
50682;BME280;36779;52.168;20.878;2022-11-13T00:58:19;102107.70;;;9.10;77.67
50682;BME280;36779;52.168;20.878;2022-11-13T01:01:08;102103.37;;;9.13;77.66
50682;BME280;36779;52.168;20.878;2022-11-13T01:03:56;102099.27;;;9.16;77.70
50682;BME280;36779;52.168;20.878;2022-11-13T01:06:44;102098.33;;;9.12;77.63
50682;BME280;36779;52.168;20.878;2022-11-13T01:09:33;102092.91;;;9.08;77.63
50682;BME280;36779;52.168;20.878;2022-11-13T01:12:20;102094.45;;;9.04;77.59
50682;BME280;36779;52.168;20.878;2022-11-13T01:15:09;102093.98;;;9.01;77.49
50682;BME280;36779;52.168;20.878;2022-11-13T01:17:57;102089.65;;;9.02;77.40
50682;BME280;36779;52.168;20.878;2022-11-13T01:20:47;102088.98;;;9.04;77.49
50682;BME280;36779;52.168;20.878;2022-11-13T01:23:36;102089.52;;;9.04;77.46
50682;BME280;36779;52.168;20.878;2022-11-13T01:26:26;102088.27;;;9.06;77.54
50682;BME280;36779;52.168;20.878;2022-11-13T01:29:15;102089.46;;;9.11;77.73
50682;BME280;36779;52.168;20.878;2022-11-13T01:32:04;102085.45;;;9.13;77.68
50682;BME280;36779;52.168;20.878;2022-11-13T01:34:55;102081.91;;;9.13;77.72
50682;BME280;36779;52.168;20.878;2022-11-13T01:37:43;102081.44;;;9.10;77.57
50682;BME280;36779;52.168;20.878;2022-11-13T01:40:34;102079.93;;;9.04;77.42
50682;BME280;36779;52.168;20.878;2022-11-13T01:43:28;102075.38;;;9.01;77.60
50682;BME280;36779;52.168;20.878;2022-11-13T01:46:26;102072.85;;;9.01;77.64
50682;BME280;36779;52.168;20.878;2022-11-13T01:49:26;102070.09;;;9.07;77.68
50682;BME280;36779;52.168;20.878;2022-11-13T01:52:17;102076.95;;;9.11;77.62
50682;BME280;36779;52.168;20.878;2022-11-13T01:55:10;102080.59;;;9.09;77.55
50682;BME280;36779;52.168;20.878;2022-11-13T01:58:02;102075.92;;;9.15;77.71
50682;BME280;36779;52.168;20.878;2022-11-13T02:00:52;102077.00;;;9.22;77.97
50682;BME280;36779;52.168;20.878;2022-11-13T02:03:47;102070.96;;;9.20;77.78
50682;BME280;36779;52.168;20.878;2022-11-13T02:06:38;102070.07;;;9.17;77.78
50682;BME280;36779;52.168;20.878;2022-11-13T02:09:30;102071.54;;;9.17;77.75
50682;BME280;36779;52.168;20.878;2022-11-13T02:12:26;102065.16;;;9.14;77.57
50682;BME280;36779;52.168;20.878;2022-11-13T02:15:22;102063.26;;;9.11;77.54
50682;BME280;36779;52.168;20.878;2022-11-13T02:18:12;102060.98;;;9.11;77.72
50682;BME280;36779;52.168;20.878;2022-11-13T02:21:08;102062.43;;;9.12;77.76
50682;BME280;36779;52.168;20.878;2022-11-13T02:24:15;102056.69;;;9.13;77.70
50682;BME280;36779;52.168;20.878;2022-11-13T02:27:07;102063.22;;;9.16;77.74
50682;BME280;36779;52.168;20.878;2022-11-13T02:29:56;102057.95;;;9.18;77.77
50682;BME280;36779;52.168;20.878;2022-11-13T02:32:47;102057.23;;;9.18;77.70
50682;BME280;36779;52.168;20.878;2022-11-13T02:35:37;102053.29;;;9.11;77.62
50682;BME280;36779;52.168;20.878;2022-11-13T02:38:24;102057.15;;;9.05;77.63
50682;BME280;36779;52.168;20.878;2022-11-13T02:41:18;102059.30;;;9.02;77.43
50682;BME280;36779;52.168;20.878;2022-11-13T02:44:06;102058.02;;;8.98;77.41
50682;BME280;36779;52.168;20.878;2022-11-13T02:46:54;102053.92;;;8.95;77.60
50682;BME280;36779;52.168;20.878;2022-11-13T02:49:42;102052.83;;;8.96;77.55
50682;BME280;36779;52.168;20.878;2022-11-13T02:52:30;102053.86;;;8.94;77.46
50682;BME280;36779;52.168;20.878;2022-11-13T02:55:20;102053.23;;;8.93;77.52
50682;BME280;36779;52.168;20.878;2022-11-13T02:58:08;102049.58;;;8.94;77.67
50682;BME280;36779;52.168;20.878;2022-11-13T03:00:55;102046.90;;;8.97;77.88
50682;BME280;36779;52.168;20.878;2022-11-13T03:03:50;102050.86;;;8.97;77.73
50682;BME280;36779;52.168;20.878;2022-11-13T03:06:45;102053.80;;;8.92;77.71
50682;BME280;36779;52.168;20.878;2022-11-13T03:09:36;102056.82;;;8.92;77.65
50682;BME280;36779;52.168;20.878;2022-11-13T03:12:26;102055.25;;;8.89;77.45
50682;BME280;36779;52.168;20.878;2022-11-13T03:15:14;102055.64;;;8.89;77.51
50682;BME280;36779;52.168;20.878;2022-11-13T03:18:03;102055.91;;;8.95;77.64
50682;BME280;36779;52.168;20.878;2022-11-13T03:20:50;102055.70;;;9.00;77.80
50682;BME280;36779;52.168;20.878;2022-11-13T03:23:41;102054.50;;;9.04;77.88
50682;BME280;36779;52.168;20.878;2022-11-13T03:26:40;102059.98;;;9.05;77.75
50682;BME280;36779;52.168;20.878;2022-11-13T03:29:33;102061.77;;;9.02;77.93
50682;BME280;36779;52.168;20.878;2022-11-13T03:32:20;102061.94;;;8.98;77.80
50682;BME280;36779;52.168;20.878;2022-11-13T03:35:08;102059.20;;;8.93;77.74
50682;BME280;36779;52.168;20.878;2022-11-13T03:37:56;102059.91;;;8.93;77.64
50682;BME280;36779;52.168;20.878;2022-11-13T03:40:49;102061.30;;;8.89;77.55
50682;BME280;36779;52.168;20.878;2022-11-13T03:43:37;102063.45;;;8.87;77.59
50682;BME280;36779;52.168;20.878;2022-11-13T03:46:26;102065.95;;;8.86;77.66
50682;BME280;36779;52.168;20.878;2022-11-13T03:49:14;102067.35;;;8.89;77.75
50682;BME280;36779;52.168;20.878;2022-11-13T03:52:01;102066.86;;;8.90;77.79
50682;BME280;36779;52.168;20.878;2022-11-13T03:54:48;102064.04;;;8.93;77.82
50682;BME280;36779;52.168;20.878;2022-11-13T03:57:39;102063.69;;;8.93;77.70
50682;BME280;36779;52.168;20.878;2022-11-13T04:00:27;102064.73;;;8.91;77.70
50682;BME280;36779;52.168;20.878;2022-11-13T04:03:18;102064.70;;;8.89;77.66
50682;BME280;36779;52.168;20.878;2022-11-13T04:06:06;102067.13;;;8.92;77.93
50682;BME280;36779;52.168;20.878;2022-11-13T04:08:56;102068.00;;;9.00;78.04
50682;BME280;36779;52.168;20.878;2022-11-13T04:11:43;102070.10;;;9.05;78.04
50682;BME280;36779;52.168;20.878;2022-11-13T04:14:31;102068.42;;;9.04;78.00
50682;BME280;36779;52.168;20.878;2022-11-13T04:17:20;102063.27;;;9.01;77.85
50682;BME280;36779;52.168;20.878;2022-11-13T04:20:10;102065.42;;;8.99;77.83
50682;BME280;36779;52.168;20.878;2022-11-13T04:23:00;102068.46;;;8.95;77.87
50682;BME280;36779;52.168;20.878;2022-11-13T04:25:52;102067.41;;;8.93;77.65
50682;BME280;36779;52.168;20.878;2022-11-13T04:28:39;102064.29;;;8.89;77.63
50682;BME280;36779;52.168;20.878;2022-11-13T04:31:27;102067.67;;;8.89;77.69
50682;BME280;36779;52.168;20.878;2022-11-13T04:34:17;102065.44;;;8.91;77.95
50682;BME280;36779;52.168;20.878;2022-11-13T04:37:05;102067.13;;;8.92;77.83
50682;BME280;36779;52.168;20.878;2022-11-13T04:39:53;102069.39;;;8.87;77.75
50682;BME280;36779;52.168;20.878;2022-11-13T04:42:41;102068.33;;;8.88;77.91
50682;BME280;36779;52.168;20.878;2022-11-13T04:45:36;102069.10;;;8.87;77.85
50682;BME280;36779;52.168;20.878;2022-11-13T04:48:26;102070.19;;;8.87;77.83
50682;BME280;36779;52.168;20.878;2022-11-13T04:51:14;102068.34;;;8.90;77.96
50682;BME280;36779;52.168;20.878;2022-11-13T04:54:09;102064.16;;;8.91;77.84
50682;BME280;36779;52.168;20.878;2022-11-13T04:57:00;102066.84;;;8.93;77.89
50682;BME280;36779;52.168;20.878;2022-11-13T04:59:49;102069.70;;;8.98;78.07
50682;BME280;36779;52.168;20.878;2022-11-13T05:02:36;102070.30;;;9.02;78.09
50682;BME280;36779;52.168;20.878;2022-11-13T05:05:30;102068.59;;;9.01;77.92
50682;BME280;36779;52.168;20.878;2022-11-13T05:08:23;102072.40;;;9.00;78.09
50682;BME280;36779;52.168;20.878;2022-11-13T05:11:19;102076.30;;;8.98;77.95
50682;BME280;36779;52.168;20.878;2022-11-13T05:14:09;102078.45;;;8.95;77.83
50682;BME280;36779;52.168;20.878;2022-11-13T05:16:59;102076.27;;;8.90;77.77
50682;BME280;36779;52.168;20.878;2022-11-13T05:19:48;102079.30;;;8.90;77.91
50682;BME280;36779;52.168;20.878;2022-11-13T05:22:35;102077.29;;;8.93;77.83
50682;BME280;36779;52.168;20.878;2022-11-13T05:25:23;102086.06;;;8.98;78.03
50682;BME280;36779;52.168;20.878;2022-11-13T05:28:11;102088.23;;;8.99;77.95
50682;BME280;36779;52.168;20.878;2022-11-13T05:31:05;102085.39;;;9.02;77.94
50682;BME280;36779;52.168;20.878;2022-11-13T05:33:56;102086.75;;;9.05;78.11
50682;BME280;36779;52.168;20.878;2022-11-13T05:36:51;102086.20;;;9.03;77.83
50682;BME280;36779;52.168;20.878;2022-11-13T05:39:38;102087.88;;;9.02;78.06
50682;BME280;36779;52.168;20.878;2022-11-13T05:42:27;102093.02;;;9.02;78.04
50682;BME280;36779;52.168;20.878;2022-11-13T05:45:14;102100.61;;;9.00;77.94
50682;BME280;36779;52.168;20.878;2022-11-13T05:48:10;102101.73;;;8.99;77.80
50682;BME280;36779;52.168;20.878;2022-11-13T05:51:01;102097.60;;;9.00;77.74
50682;BME280;36779;52.168;20.878;2022-11-13T05:53:50;102099.48;;;9.01;77.98
50682;BME280;36779;52.168;20.878;2022-11-13T05:56:41;102101.06;;;9.01;77.78
50682;BME280;36779;52.168;20.878;2022-11-13T05:59:28;102098.11;;;8.98;77.90
50682;BME280;36779;52.168;20.878;2022-11-13T06:02:16;102097.08;;;8.97;77.95
50682;BME280;36779;52.168;20.878;2022-11-13T06:05:11;102104.23;;;8.97;78.03
50682;BME280;36779;52.168;20.878;2022-11-13T06:07:58;102107.08;;;8.99;78.08
50682;BME280;36779;52.168;20.878;2022-11-13T06:10:45;102102.61;;;8.99;77.93
50682;BME280;36779;52.168;20.878;2022-11-13T06:13:38;102097.96;;;8.97;77.94
50682;BME280;36779;52.168;20.878;2022-11-13T06:16:28;102104.27;;;8.99;78.02
50682;BME280;36779;52.168;20.878;2022-11-13T06:19:19;102105.15;;;9.01;78.04
50682;BME280;36779;52.168;20.878;2022-11-13T06:22:07;102103.77;;;9.00;77.98
50682;BME280;36779;52.168;20.878;2022-11-13T06:25:05;102107.66;;;9.00;77.86
50682;BME280;36779;52.168;20.878;2022-11-13T06:28:00;102106.55;;;9.01;78.05
50682;BME280;36779;52.168;20.878;2022-11-13T06:30:49;102110.80;;;8.99;77.84
50682;BME280;36779;52.168;20.878;2022-11-13T06:33:37;102108.96;;;8.97;78.02
50682;BME280;36779;52.168;20.878;2022-11-13T06:36:31;102106.74;;;8.98;77.85
50682;BME280;36779;52.168;20.878;2022-11-13T06:39:18;102105.67;;;9.01;77.86
50682;BME280;36779;52.168;20.878;2022-11-13T06:42:06;102105.08;;;9.04;77.95
50682;BME280;36779;52.168;20.878;2022-11-13T06:44:53;102106.88;;;9.11;78.09
50682;BME280;36779;52.168;20.878;2022-11-13T06:47:41;102109.64;;;9.12;77.88
50682;BME280;36779;52.168;20.878;2022-11-13T06:50:31;102109.17;;;9.14;78.04
50682;BME280;36779;52.168;20.878;2022-11-13T06:53:19;102113.70;;;9.15;78.04
50682;BME280;36779;52.168;20.878;2022-11-13T06:56:07;102112.92;;;9.13;77.98
50682;BME280;36779;52.168;20.878;2022-11-13T06:58:56;102113.81;;;9.08;77.86
50682;BME280;36779;52.168;20.878;2022-11-13T07:01:44;102115.77;;;9.08;77.80
50682;BME280;36779;52.168;20.878;2022-11-13T07:04:34;102117.95;;;9.05;77.69
50682;BME280;36779;52.168;20.878;2022-11-13T07:07:22;102113.17;;;9.05;77.79
50682;BME280;36779;52.168;20.878;2022-11-13T07:10:11;102109.63;;;9.07;77.76
50682;BME280;36779;52.168;20.878;2022-11-13T07:12:59;102109.13;;;9.07;77.60
50682;BME280;36779;52.168;20.878;2022-11-13T07:15:50;102111.48;;;9.11;77.97
50682;BME280;36779;52.168;20.878;2022-11-13T07:18:39;102111.13;;;9.14;77.77
50682;BME280;36779;52.168;20.878;2022-11-13T07:21:26;102109.73;;;9.13;77.71
50682;BME280;36779;52.168;20.878;2022-11-13T07:24:18;102113.61;;;9.11;77.72
50682;BME280;36779;52.168;20.878;2022-11-13T07:27:13;102112.13;;;9.07;77.76
50682;BME280;36779;52.168;20.878;2022-11-13T07:30:03;102112.95;;;9.08;77.74
50682;BME280;36779;52.168;20.878;2022-11-13T07:32:52;102114.09;;;9.12;77.71
50682;BME280;36779;52.168;20.878;2022-11-13T07:35:40;102113.25;;;9.11;77.69
50682;BME280;36779;52.168;20.878;2022-11-13T07:38:27;102108.44;;;9.12;77.85
50682;BME280;36779;52.168;20.878;2022-11-13T07:41:22;102103.48;;;9.14;77.96
50682;BME280;36779;52.168;20.878;2022-11-13T07:44:10;102099.85;;;9.15;78.04
50682;BME280;36779;52.168;20.878;2022-11-13T07:47:24;102105.09;;;9.14;77.90
50682;BME280;36779;52.168;20.878;2022-11-13T07:50:12;102103.34;;;9.13;77.87
50682;BME280;36779;52.168;20.878;2022-11-13T07:53:07;102101.63;;;9.10;77.73
50682;BME280;36779;52.168;20.878;2022-11-13T07:56:00;102101.58;;;9.06;77.53
50682;BME280;36779;52.168;20.878;2022-11-13T07:58:54;102104.68;;;9.00;77.60
50682;BME280;36779;52.168;20.878;2022-11-13T08:01:44;102101.00;;;8.97;77.48
50682;BME280;36779;52.168;20.878;2022-11-13T08:04:32;102102.28;;;8.94;77.65
50682;BME280;36779;52.168;20.878;2022-11-13T08:07:20;102107.34;;;8.93;77.75
50682;BME280;36779;52.168;20.878;2022-11-13T08:10:10;102108.39;;;8.90;77.66
50682;BME280;36779;52.168;20.878;2022-11-13T08:12:59;102107.58;;;8.92;77.88
50682;BME280;36779;52.168;20.878;2022-11-13T08:15:48;102106.64;;;9.00;78.01
50682;BME280;36779;52.168;20.878;2022-11-13T08:18:36;102107.15;;;9.07;77.94
50682;BME280;36779;52.168;20.878;2022-11-13T08:21:25;102108.97;;;9.14;78.03
50682;BME280;36779;52.168;20.878;2022-11-13T08:24:21;102107.95;;;9.23;78.13
50682;BME280;36779;52.168;20.878;2022-11-13T08:27:09;102112.73;;;9.26;77.86
50682;BME280;36779;52.168;20.878;2022-11-13T08:29:56;102110.13;;;9.23;77.84
50682;BME280;36779;52.168;20.878;2022-11-13T08:32:44;102110.70;;;9.25;77.97
50682;BME280;36779;52.168;20.878;2022-11-13T08:36:01;102113.14;;;9.23;77.83
50682;BME280;36779;52.168;20.878;2022-11-13T08:38:50;102110.91;;;9.24;77.87
50682;BME280;36779;52.168;20.878;2022-11-13T08:41:38;102107.09;;;9.26;77.98
50682;BME280;36779;52.168;20.878;2022-11-13T08:44:25;102106.94;;;9.30;77.92
50682;BME280;36779;52.168;20.878;2022-11-13T08:47:16;102107.77;;;9.33;77.95
50682;BME280;36779;52.168;20.878;2022-11-13T08:50:10;102110.37;;;9.39;78.05
50682;BME280;36779;52.168;20.878;2022-11-13T08:52:58;102113.18;;;9.47;78.10
50682;BME280;36779;52.168;20.878;2022-11-13T08:55:50;102115.50;;;9.51;78.00
50682;BME280;36779;52.168;20.878;2022-11-13T08:58:38;102119.63;;;9.53;78.04
50682;BME280;36779;52.168;20.878;2022-11-13T09:01:25;102115.02;;;9.53;77.88
50682;BME280;36779;52.168;20.878;2022-11-13T09:04:16;102113.23;;;9.53;77.86
50682;BME280;36779;52.168;20.878;2022-11-13T09:07:04;102109.64;;;9.56;77.81
50682;BME280;36779;52.168;20.878;2022-11-13T09:09:55;102107.45;;;9.62;78.12
50682;BME280;36779;52.168;20.878;2022-11-13T09:12:47;102108.41;;;9.68;77.93
50682;BME280;36779;52.168;20.878;2022-11-13T09:15:37;102109.38;;;9.74;77.93
50682;BME280;36779;52.168;20.878;2022-11-13T09:18:26;102099.73;;;9.77;77.96
50682;BME280;36779;52.168;20.878;2022-11-13T09:21:16;102097.74;;;9.75;77.95
50682;BME280;36779;52.168;20.878;2022-11-13T09:24:05;102095.02;;;9.71;77.77
50682;BME280;36779;52.168;20.878;2022-11-13T09:26:54;102092.08;;;9.68;77.67
50682;BME280;36779;52.168;20.878;2022-11-13T09:29:43;102089.77;;;9.71;77.78
50682;BME280;36779;52.168;20.878;2022-11-13T09:32:30;102085.08;;;9.76;77.87
50682;BME280;36779;52.168;20.878;2022-11-13T09:35:19;102088.27;;;9.78;77.79
50682;BME280;36779;52.168;20.878;2022-11-13T09:38:19;102091.27;;;9.83;77.88
50682;BME280;36779;52.168;20.878;2022-11-13T09:41:08;102093.73;;;9.91;78.10
50682;BME280;36779;52.168;20.878;2022-11-13T09:44:00;102091.64;;;9.85;77.75
50682;BME280;36779;52.168;20.878;2022-11-13T09:46:54;102088.48;;;9.75;77.68
50682;BME280;36779;52.168;20.878;2022-11-13T09:49:49;102089.20;;;9.66;77.58
50682;BME280;36779;52.168;20.878;2022-11-13T09:52:41;102083.70;;;9.61;77.66
50682;BME280;36779;52.168;20.878;2022-11-13T09:55:35;102081.67;;;9.59;77.71
50682;BME280;36779;52.168;20.878;2022-11-13T09:58:30;102080.70;;;9.61;77.69
50682;BME280;36779;52.168;20.878;2022-11-13T10:01:28;102076.33;;;9.60;77.72
50682;BME280;36779;52.168;20.878;2022-11-13T10:04:25;102071.98;;;9.68;77.99
50682;BME280;36779;52.168;20.878;2022-11-13T10:07:27;102069.23;;;9.72;77.84
50682;BME280;36779;52.168;20.878;2022-11-13T10:10:41;102067.82;;;9.74;77.91
50682;BME280;36779;52.168;20.878;2022-11-13T10:13:48;102065.25;;;9.77;77.86
50682;BME280;36779;52.168;20.878;2022-11-13T10:16:49;102058.95;;;9.81;77.96
50682;BME280;36779;52.168;20.878;2022-11-13T10:19:43;102055.00;;;9.84;78.00
50682;BME280;36779;52.168;20.878;2022-11-13T10:22:38;102051.45;;;9.91;77.86
50682;BME280;36779;52.168;20.878;2022-11-13T10:25:29;102059.91;;;9.96;77.97
50682;BME280;36779;52.168;20.878;2022-11-13T10:28:20;102063.64;;;9.98;77.79
50682;BME280;36779;52.168;20.878;2022-11-13T10:31:41;102057.46;;;10.03;78.12
50682;BME280;36779;52.168;20.878;2022-11-13T10:34:28;102053.59;;;10.05;77.88
50682;BME280;36779;52.168;20.878;2022-11-13T10:37:31;102051.55;;;10.05;78.10
50682;BME280;36779;52.168;20.878;2022-11-13T10:40:26;102050.88;;;10.05;77.83
50682;BME280;36779;52.168;20.878;2022-11-13T10:43:20;102049.52;;;10.04;77.84
50682;BME280;36779;52.168;20.878;2022-11-13T10:46:21;102047.12;;;10.05;77.74
50682;BME280;36779;52.168;20.878;2022-11-13T10:49:20;102046.80;;;10.05;77.69
50682;BME280;36779;52.168;20.878;2022-11-13T10:52:19;102047.67;;;10.05;77.70
50682;BME280;36779;52.168;20.878;2022-11-13T10:55:16;102049.74;;;10.06;77.75
50682;BME280;36779;52.168;20.878;2022-11-13T10:58:13;102044.73;;;10.09;77.87
50682;BME280;36779;52.168;20.878;2022-11-13T11:01:18;102041.08;;;10.12;77.97
50682;BME280;36779;52.168;20.878;2022-11-13T11:04:13;102034.63;;;10.11;77.73
50682;BME280;36779;52.168;20.878;2022-11-13T11:07:14;102031.23;;;10.09;77.65
50682;BME280;36779;52.168;20.878;2022-11-13T11:10:33;102031.83;;;10.10;77.74
50682;BME280;36779;52.168;20.878;2022-11-13T11:13:22;102036.30;;;10.10;77.64
50682;BME280;36779;52.168;20.878;2022-11-13T11:16:21;102036.30;;;10.07;77.80
50682;BME280;36779;52.168;20.878;2022-11-13T11:19:13;102031.59;;;10.09;77.79
50682;BME280;36779;52.168;20.878;2022-11-13T11:22:12;102028.23;;;10.08;77.79
50682;BME280;36779;52.168;20.878;2022-11-13T11:25:09;102029.45;;;10.11;77.87
50682;BME280;36779;52.168;20.878;2022-11-13T11:28:03;102030.63;;;10.09;77.66
50682;BME280;36779;52.168;20.878;2022-11-13T11:31:00;102029.25;;;10.11;77.67
50682;BME280;36779;52.168;20.878;2022-11-13T11:33:54;102036.16;;;10.16;77.78
50682;BME280;36779;52.168;20.878;2022-11-13T11:36:51;102037.95;;;10.25;78.03
50682;BME280;36779;52.168;20.878;2022-11-13T11:39:49;102036.02;;;10.39;77.97
50682;BME280;36779;52.168;20.878;2022-11-13T11:42:46;102037.94;;;10.46;77.83
50682;BME280;36779;52.168;20.878;2022-11-13T11:45:38;102027.44;;;10.51;77.89
50682;BME280;36779;52.168;20.878;2022-11-13T11:48:31;102019.05;;;10.53;77.70
50682;BME280;36779;52.168;20.878;2022-11-13T11:51:29;102013.41;;;10.55;77.73
50682;BME280;36779;52.168;20.878;2022-11-13T11:54:27;102016.17;;;10.56;77.78
50682;BME280;36779;52.168;20.878;2022-11-13T11:57:32;102018.19;;;10.60;77.77
50682;BME280;36779;52.168;20.878;2022-11-13T12:00:23;102017.20;;;10.61;77.78
50682;BME280;36779;52.168;20.878;2022-11-13T12:03:44;102015.65;;;10.63;77.77
50682;BME280;36779;52.168;20.878;2022-11-13T12:06:44;102012.70;;;10.62;77.64
50682;BME280;36779;52.168;20.878;2022-11-13T12:09:37;102013.27;;;10.57;77.72
50682;BME280;36779;52.168;20.878;2022-11-13T12:12:35;102008.63;;;10.50;77.57
50682;BME280;36779;52.168;20.878;2022-11-13T12:15:30;102001.52;;;10.46;77.55
50682;BME280;36779;52.168;20.878;2022-11-13T12:18:35;102002.05;;;10.46;77.62
50682;BME280;36779;52.168;20.878;2022-11-13T12:21:26;102004.09;;;10.47;77.48
50682;BME280;36779;52.168;20.878;2022-11-13T12:24:43;102002.85;;;10.49;77.64
50682;BME280;36779;52.168;20.878;2022-11-13T12:27:41;101996.68;;;10.51;77.57
50682;BME280;36779;52.168;20.878;2022-11-13T12:30:37;102000.78;;;10.51;77.38
50682;BME280;36779;52.168;20.878;2022-11-13T12:33:40;101999.48;;;10.49;77.55
50682;BME280;36779;52.168;20.878;2022-11-13T12:36:33;101997.20;;;10.49;77.45
50682;BME280;36779;52.168;20.878;2022-11-13T12:39:32;101991.16;;;10.49;77.61
50682;BME280;36779;52.168;20.878;2022-11-13T12:42:32;101988.98;;;10.49;77.46
50682;BME280;36779;52.168;20.878;2022-11-13T12:45:24;101987.45;;;10.44;77.12
50682;BME280;36779;52.168;20.878;2022-11-13T12:48:32;101989.33;;;10.39;77.24
50682;BME280;36779;52.168;20.878;2022-11-13T12:51:21;101987.52;;;10.43;77.34
50682;BME280;36779;52.168;20.878;2022-11-13T12:54:10;101984.90;;;10.47;77.51
50682;BME280;36779;52.168;20.878;2022-11-13T12:57:15;101987.14;;;10.52;77.61
50682;BME280;36779;52.168;20.878;2022-11-13T13:00:26;101989.20;;;10.53;77.69
50682;BME280;36779;52.168;20.878;2022-11-13T13:03:25;101986.52;;;10.51;77.71
50682;BME280;36779;52.168;20.878;2022-11-13T13:06:44;101981.41;;;10.48;77.65
50682;BME280;36779;52.168;20.878;2022-11-13T13:09:53;101980.05;;;10.46;77.66
50682;BME280;36779;52.168;20.878;2022-11-13T13:12:58;101979.84;;;10.48;77.62
50682;BME280;36779;52.168;20.878;2022-11-13T13:15:55;101979.84;;;10.46;77.33
50682;BME280;36779;52.168;20.878;2022-11-13T13:18:44;101976.83;;;10.48;77.52
50682;BME280;36779;52.168;20.878;2022-11-13T13:21:42;101975.55;;;10.49;77.57
50682;BME280;36779;52.168;20.878;2022-11-13T13:24:32;101976.45;;;10.46;77.53
50682;BME280;36779;52.168;20.878;2022-11-13T13:27:24;101973.05;;;10.44;77.58
50682;BME280;36779;52.168;20.878;2022-11-13T13:30:20;101969.57;;;10.39;77.27
50682;BME280;36779;52.168;20.878;2022-11-13T13:33:21;101967.20;;;10.28;77.11
50682;BME280;36779;52.168;20.878;2022-11-13T13:36:22;101969.61;;;10.18;76.89
50682;BME280;36779;52.168;20.878;2022-11-13T13:39:31;101969.77;;;10.16;77.02
50682;BME280;36779;52.168;20.878;2022-11-13T13:42:34;101963.73;;;10.13;77.05
50682;BME280;36779;52.168;20.878;2022-11-13T13:45:33;101961.86;;;10.12;77.07
50682;BME280;36779;52.168;20.878;2022-11-13T13:48:24;101966.48;;;10.12;77.15
50682;BME280;36779;52.168;20.878;2022-11-13T13:51:19;101964.63;;;10.06;77.05
50682;BME280;36779;52.168;20.878;2022-11-13T13:54:16;101962.77;;;10.01;77.03
50682;BME280;36779;52.168;20.878;2022-11-13T13:57:08;101953.26;;;9.98;77.09
50682;BME280;36779;52.168;20.878;2022-11-13T13:59:57;101954.62;;;10.03;77.37
50682;BME280;36779;52.168;20.878;2022-11-13T14:02:50;101953.20;;;10.14;77.51
50682;BME280;36779;52.168;20.878;2022-11-13T14:05:43;101949.68;;;10.18;77.28
50682;BME280;36779;52.168;20.878;2022-11-13T14:08:30;101949.70;;;10.11;77.07
50682;BME280;36779;52.168;20.878;2022-11-13T14:11:20;101949.68;;;10.02;76.99
50682;BME280;36779;52.168;20.878;2022-11-13T14:14:08;101949.58;;;9.95;77.02
50682;BME280;36779;52.168;20.878;2022-11-13T14:17:02;101946.98;;;9.91;77.17
50682;BME280;36779;52.168;20.878;2022-11-13T14:19:49;101944.00;;;9.95;77.36
50682;BME280;36779;52.168;20.878;2022-11-13T14:22:38;101947.59;;;9.95;77.06
50682;BME280;36779;52.168;20.878;2022-11-13T14:25:27;101943.75;;;9.89;76.88
50682;BME280;36779;52.168;20.878;2022-11-13T14:28:18;101944.19;;;9.84;76.82
50682;BME280;36779;52.168;20.878;2022-11-13T14:31:08;101941.98;;;9.80;76.90
50682;BME280;36779;52.168;20.878;2022-11-13T14:34:07;101939.42;;;9.79;77.01
50682;BME280;36779;52.168;20.878;2022-11-13T14:36:56;101940.35;;;9.76;77.05
50682;BME280;36779;52.168;20.878;2022-11-13T14:39:53;101940.96;;;9.71;77.05
50682;BME280;36779;52.168;20.878;2022-11-13T14:42:46;101941.16;;;9.66;77.00
50682;BME280;36779;52.168;20.878;2022-11-13T14:46:02;101939.87;;;9.62;76.99
50682;BME280;36779;52.168;20.878;2022-11-13T14:48:53;101940.52;;;9.60;76.92
50682;BME280;36779;52.168;20.878;2022-11-13T14:51:52;101940.64;;;9.59;76.82
50682;BME280;36779;52.168;20.878;2022-11-13T14:54:40;101942.05;;;9.57;76.96
50682;BME280;36779;52.168;20.878;2022-11-13T14:57:50;101942.11;;;9.56;77.05
50682;BME280;36779;52.168;20.878;2022-11-13T15:00:38;101939.11;;;9.53;77.13